Time;durP1;ratioP1;P1;durP2;ratioP2;P2;SDS_P1;SDS_P2;PMS_P1;PMS_P2;Temp;Humidity;BMP_temperature;BMP_pressure;BME280_temperature;BME280_humidity;BME280_pressure;Samples;Min_cycle;Max_cycle;Signal;HPM_P1;HPM_P2
2021/06/01 00:01:47;;;;;;;6.22;1.23;;;11.40;78.50;;;;;;5048350;28;19919;-66
2021/06/01 00:04:14;;;;;;;3.78;1.75;;;11.40;79.00;;;;;;5047608;28;20064;-66
2021/06/01 00:06:40;;;;;;;8.75;1.65;;;11.40;78.40;;;;;;5048002;28;20025;-66
2021/06/01 00:09:09;;;;;;;6.30;1.33;;;11.40;78.40;;;;;;5047457;28;20708;-68
2021/06/01 00:11:35;;;;;;;3.13;1.30;;;11.30;78.90;;;;;;5047314;28;20136;-67
2021/06/01 00:14:01;;;;;;;3.58;1.15;;;11.30;78.50;;;;;;5047816;28;20037;-68
2021/06/01 00:16:27;;;;;;;;;;;11.40;78.30;;;;;;5048109;28;20447;-70
2021/06/01 00:18:53;;;;;;;4.70;1.50;;;11.40;78.20;;;;;;5047446;28;19916;-69
2021/06/01 00:21:19;;;;;;;7.55;1.63;;;11.30;78.20;;;;;;5047731;28;20037;-66
2021/06/01 00:23:45;;;;;;;3.67;1.30;;;11.40;78.10;;;;;;5047449;28;20091;-66
2021/06/01 00:26:11;;;;;;;;;;;11.40;78.00;;;;;;5046318;28;20375;-67
2021/06/01 00:28:38;;;;;;;11.35;3.83;;;11.30;77.40;;;;;;5047579;28;19909;-65
2021/06/01 00:31:04;;;;;;;2.88;1.10;;;11.30;77.30;;;;;;5047117;28;20429;-66
2021/06/01 00:33:30;;;;;;;;;;;11.40;77.40;;;;;;5047975;28;20037;-66
2021/06/01 00:35:56;;;;;;;2.67;1.27;;;11.30;77.20;;;;;;5045845;28;19915;-65
2021/06/01 00:38:21;;;;;;;;;;;11.30;77.50;;;;;;5047747;28;20037;-65
2021/06/01 00:40:47;;;;;;;5.13;1.77;;;11.40;76.90;;;;;;5046976;28;20292;-66
2021/06/01 00:43:13;;;;;;;;;;;11.30;77.00;;;;;;5047531;28;20037;-66
2021/06/01 00:45:39;;;;;;;6.32;1.35;;;11.40;76.10;;;;;;5047269;28;19904;-67
2021/06/01 00:48:04;;;;;;;;;;;11.40;76.20;;;;;;5047375;28;20391;-66
2021/06/01 00:50:30;;;;;;;2.92;1.42;;;11.40;76.70;;;;;;5047222;28;19909;-66
2021/06/01 00:52:56;;;;;;;;;;;11.40;76.20;;;;;;5047333;28;20025;-66
2021/06/01 00:55:25;;;;;;;3.83;1.70;;;11.30;75.90;;;;;;5046152;28;19909;-65
2021/06/01 00:57:51;;;;;;;3.80;1.55;;;11.30;76.40;;;;;;5046600;28;20464;-66
2021/06/01 01:02:53;;;;;;;4.60;1.48;;;11.20;76.90;;;;;;5046567;28;20524;-66
2021/06/01 01:05:19;;;;;;;;;;;11.10;76.80;;;;;;5047400;28;20029;-66
2021/06/01 01:08:04;;;;;;;4.57;1.77;;;11.10;77.60;;;;;;5046923;28;19912;-66
2021/06/01 01:10:31;;;;;;;13.48;3.08;;;11.00;77.20;;;;;;5046234;28;20052;-66
2021/06/01 01:13:01;;;;;;;4.15;1.45;;;11.00;77.00;;;;;;5046710;28;20033;-66
2021/06/01 01:15:29;;;;;;;9.88;2.05;;;11.00;77.00;;;;;;5046217;28;20048;-66
2021/06/01 01:18:01;;;;;;;7.53;1.98;;;11.10;77.00;;;;;;5046662;28;20037;-65
2021/06/01 01:20:36;;;;;;;16.85;1.95;;;11.10;76.50;;;;;;5046394;28;20378;-66
2021/06/01 01:23:11;;;;;;;3.60;1.30;;;11.10;76.80;;;;;;5046582;28;20040;-65
2021/06/01 01:25:41;;;;;;;3.72;1.48;;;11.10;77.20;;;;;;5044533;28;20476;-66
2021/06/01 01:28:27;;;;;;;4.07;1.15;;;11.00;77.10;;;;;;5046693;28;20128;-66
2021/06/01 01:31:01;;;;;;;9.88;1.15;;;11.00;76.80;;;;;;5046102;28;20110;-66
2021/06/01 01:33:38;;;;;;;5.30;1.45;;;11.00;76.00;;;;;;5046178;28;20116;-66
2021/06/01 01:36:08;;;;;;;4.95;1.33;;;11.10;75.50;;;;;;5046365;28;20039;-66
2021/06/01 01:38:37;;;;;;;5.22;1.45;;;11.00;76.00;;;;;;5045992;28;20504;-66
2021/06/01 01:41:14;;;;;;;3.17;1.02;;;11.00;75.50;;;;;;5045965;28;20520;-66
2021/06/01 01:43:47;;;;;;;4.85;1.33;;;11.00;75.70;;;;;;5046120;28;20459;-66
2021/06/01 01:46:24;;;;;;;3.58;1.42;;;11.00;75.50;;;;;;5046397;28;20175;-66
2021/06/01 01:48:59;;;;;;;2.80;1.35;;;10.90;75.60;;;;;;5045857;28;20025;-67
2021/06/01 01:51:43;;;;;;;5.55;1.23;;;10.80;76.10;;;;;;5046523;28;20029;-66
2021/06/01 01:54:13;;;;;;;5.78;1.20;;;10.80;76.90;;;;;;5044679;28;20033;-66
2021/06/01 01:56:43;;;;;;;2.08;1.30;;;10.70;77.00;;;;;;5044700;28;20044;-66
2021/06/01 01:59:18;;;;;;;3.88;0.93;;;10.60;77.60;;;;;;5044452;28;20033;-66
2021/06/01 02:01:47;;;;;;;10.00;1.77;;;10.50;78.70;;;;;;5046201;28;20447;-66
2021/06/01 02:04:15;;;;;;;4.10;1.50;;;10.30;79.40;;;;;;5046254;28;20025;-66
2021/06/01 02:06:40;;;;;;;4.15;1.63;;;10.20;80.00;;;;;;5048990;28;20079;-66
2021/06/01 02:09:07;;;;;;;;;;;10.10;79.40;;;;;;5050196;28;20025;-66
2021/06/01 02:11:33;;;;;;;3.55;1.85;;;10.10;81.30;;;;;;5050409;28;19909;-66
2021/06/01 02:14:03;;;;;;;;;;;9.90;81.70;;;;;;5050203;28;20032;-66
2021/06/01 02:16:31;;;;;;;3.60;1.52;;;9.90;82.50;;;;;;5049762;28;19923;-67
2021/06/01 02:18:57;;;;;;;2.53;1.30;;;9.80;82.60;;;;;;5050121;28;20203;-66
2021/06/01 02:21:34;;;;;;;;;;;9.70;83.20;;;;;;5050044;28;20028;-66
2021/06/01 02:24:09;;;;;;;5.63;1.15;;;9.60;82.80;;;;;;5049245;28;19916;-65
2021/06/01 02:26:53;;;;;;;6.97;1.73;;;9.60;82.70;;;;;;5049566;28;20508;-67
2021/06/01 02:29:31;;;;;;;3.05;1.25;;;9.60;83.10;;;;;;5049500;28;20120;-65
2021/06/01 02:31:58;;;;;;;2.97;0.95;;;9.90;77.80;;;;;;5049471;28;20039;-65
2021/06/01 02:34:24;;;;;;;2.33;1.02;;;10.40;78.10;;;;;;5049843;28;20033;-66
2021/06/01 02:36:52;;;;;;;3.22;1.40;;;10.50;77.20;;;;;;5049225;28;20589;-66
2021/06/01 02:39:20;;;;;;;7.93;1.67;;;10.80;76.30;;;;;;5048927;28;20104;-65
2021/06/01 02:41:47;;;;;;;4.20;1.38;;;11.10;70.10;;;;;;5049756;28;20098;-66
2021/06/01 02:44:14;;;;;;;8.40;1.73;;;11.50;70.70;;;;;;5049217;28;20017;-67
2021/06/01 02:46:40;;;;;;;6.18;1.35;;;11.60;70.50;;;;;;5049768;28;20035;-64
2021/06/01 02:49:06;;;;;;;2.88;1.33;;;11.90;65.80;;;;;;5048961;28;20032;-65
2021/06/01 02:51:32;;;;;;;;;;;12.00;65.80;;;;;;5049939;28;20029;-66
2021/06/01 02:53:59;;;;;;;7.55;1.63;;;12.00;67.70;;;;;;5048659;28;20003;-66
2021/06/01 02:56:25;;;;;;;4.95;1.08;;;12.00;68.70;;;;;;5049380;28;20098;-66
2021/06/01 02:58:51;;;;;;;;;;;11.90;69.40;;;;;;5049228;28;20418;-66
2021/06/01 03:01:19;;;;;;;2.38;0.98;;;12.00;66.10;;;;;;5049324;28;19905;-65
2021/06/01 03:03:54;;;;;;;4.50;1.50;;;11.90;68.00;;;;;;5048939;28;20025;-66
2021/06/01 03:06:22;;;;;;;10.48;1.42;;;11.80;70.50;;;;;;5048956;28;20033;-66
2021/06/01 03:08:48;;;;;;;5.55;1.33;;;11.80;68.20;;;;;;5048742;28;20049;-65
2021/06/01 03:11:16;;;;;;;;;;;12.00;66.30;;;;;;5049711;28;20029;-66
2021/06/01 03:13:43;;;;;;;8.57;0.95;;;12.10;66.90;;;;;;5048922;28;19916;-66
2021/06/01 03:16:09;;;;;;;5.95;1.77;;;12.00;69.00;;;;;;5047521;28;20452;-66
2021/06/01 03:18:34;;;;;;;;;;;11.90;71.00;;;;;;5048501;28;20037;-65
2021/06/01 03:21:00;;;;;;;12.20;1.42;;;11.70;71.60;;;;;;5047738;28;19916;-66
2021/06/01 03:23:26;;;;;;;;;;;11.40;73.10;;;;;;5049079;28;20523;-66
2021/06/01 03:25:52;;;;;;;3.58;1.15;;;11.20;74.70;;;;;;5048756;28;19905;-66
2021/06/01 03:28:19;;;;;;;7.78;1.13;;;11.20;74.60;;;;;;5049074;28;20056;-66
2021/06/01 03:30:46;;;;;;;6.93;1.20;;;11.10;75.50;;;;;;5048108;28;20081;-65
2021/06/01 03:33:12;;;;;;;4.70;1.60;;;11.00;75.90;;;;;;5048492;28;20032;-67
2021/06/01 03:35:38;;;;;;;3.72;1.50;;;11.00;75.80;;;;;;5048229;28;20540;-66
2021/06/01 03:38:04;;;;;;;;;;;11.00;75.50;;;;;;5048512;28;20033;-65
2021/06/01 03:40:30;;;;;;;5.13;1.85;;;11.00;75.60;;;;;;5048520;28;20395;-66
2021/06/01 03:42:55;;;;;;;;;;;11.10;73.60;;;;;;5048528;28;20479;-66
2021/06/01 03:45:23;;;;;;;2.88;1.40;;;11.20;73.70;;;;;;5048128;28;19905;-66
2021/06/01 03:47:49;;;;;;;3.67;1.30;;;11.30;74.10;;;;;;5048333;28;20371;-66
2021/06/01 03:50:15;;;;;;;7.70;1.48;;;11.40;74.00;;;;;;5048568;28;20021;-66
2021/06/01 03:52:41;;;;;;;6.78;1.30;;;11.60;73.40;;;;;;5048105;28;20055;-66
2021/06/01 03:55:07;;;;;;;;;;;11.80;72.30;;;;;;5048749;28;20865;-66
2021/06/01 03:57:33;;;;;;;4.43;1.05;;;12.10;70.80;;;;;;5047765;28;20027;-66
2021/06/01 03:59:59;;;;;;;;;;;12.30;69.90;;;;;;5048815;28;20096;-64
2021/06/01 04:02:25;;;;;;;2.88;1.50;;;12.70;68.40;;;;;;5048045;28;19909;-66
2021/06/01 04:04:51;;;;;;;;;;;13.10;65.60;;;;;;5048415;28;20036;-66
2021/06/01 04:07:17;;;;;;;4.13;1.20;;;13.40;65.10;;;;;;5048024;28;20377;-66
2021/06/01 04:09:42;;;;;;;;;;;13.70;65.20;;;;;;5048226;28;20033;-66
2021/06/01 04:12:10;;;;;;;4.25;1.30;;;13.80;63.60;;;;;;5047613;28;19916;-63
2021/06/01 04:14:36;;;;;;;9.00;1.25;;;14.00;62.10;;;;;;5048080;28;20446;-66
2021/06/01 04:17:02;;;;;;;;;;;14.30;60.40;;;;;;5047944;28;20040;-66
2021/06/01 04:19:28;;;;;;;4.70;1.15;;;14.30;60.40;;;;;;5047626;28;19909;-66
2021/06/01 04:21:53;;;;;;;;;;;14.40;60.00;;;;;;5048202;28;20033;-66
2021/06/01 04:24:20;;;;;;;6.80;1.30;;;14.40;59.10;;;;;;5046921;28;19932;-66
2021/06/01 04:26:46;;;;;;;5.35;1.20;;;14.50;60.00;;;;;;5047685;28;20051;-66
2021/06/01 04:29:11;;;;;;;;;;;14.60;60.10;;;;;;5046223;28;20499;-66
2021/06/01 04:31:40;;;;;;;4.00;1.50;;;14.60;59.20;;;;;;5047035;28;19924;-65
2021/06/01 04:34:05;;;;;;;5.65;0.90;;;14.60;58.80;;;;;;5047739;28;20051;-66
2021/06/01 04:36:31;;;;;;;;;;;14.70;59.10;;;;;;5047971;28;20064;-66
2021/06/01 04:38:56;;;;;;;8.85;1.27;;;14.60;58.80;;;;;;5045150;28;19915;-66
2021/06/01 04:41:22;;;;;;;;;;;14.60;58.60;;;;;;5046513;28;20033;-66
2021/06/01 04:43:47;;;;;;;3.17;1.15;;;14.50;59.70;;;;;;5047138;28;19909;-67
2021/06/01 04:46:13;;;;;;;;;;;14.50;59.60;;;;;;5047701;28;20029;-66
2021/06/01 04:48:39;;;;;;;13.45;1.20;;;14.50;60.00;;;;;;5046965;28;19909;-66
2021/06/01 04:51:04;;;;;;;;;;;14.50;59.70;;;;;;5047646;28;20464;-66
2021/06/01 04:53:30;;;;;;;7.60;1.30;;;14.60;58.90;;;;;;5046689;28;19909;-66
2021/06/01 04:55:55;;;;;;;;;;;14.70;58.90;;;;;;5047305;28;20036;-66
2021/06/01 04:58:21;;;;;;;11.82;1.10;;;14.80;58.00;;;;;;5046991;28;20396;-66
2021/06/01 05:00:47;;;;;;;;;;;15.00;57.40;;;;;;5047314;28;20128;-66
2021/06/01 05:03:13;;;;;;;7.05;1.20;;;15.20;56.50;;;;;;5047054;28;19908;-66
2021/06/01 05:05:38;;;;;;;;;;;15.30;56.70;;;;;;5047143;28;20040;-66
2021/06/01 05:08:04;;;;;;;3.13;1.20;;;15.40;55.90;;;;;;5046403;28;20422;-65
2021/06/01 05:10:30;;;;;;;;;;;15.60;56.00;;;;;;5047132;28;20071;-66
2021/06/01 05:12:55;;;;;;;6.47;1.13;;;15.60;55.60;;;;;;5046725;28;19962;-66
2021/06/01 05:15:21;;;;;;;3.22;1.20;;;15.80;53.60;;;;;;5045633;28;20040;-66
2021/06/01 05:17:47;;;;;;;4.13;1.17;;;16.10;52.80;;;;;;5045432;28;20044;-66
2021/06/01 05:20:13;;;;;;;11.77;1.17;;;16.20;53.30;;;;;;5046812;28;20053;-66
2021/06/01 05:22:38;;;;;;;8.63;1.00;;;16.20;52.80;;;;;;5046420;28;20500;-66
2021/06/01 05:25:04;;;;;;;;;;;16.50;51.70;;;;;;5046604;28;20029;-66
2021/06/01 05:27:30;;;;;;;7.90;1.38;;;16.30;52.40;;;;;;5046561;28;20376;-66
2021/06/01 05:30:00;;;;;;;;;;;16.60;51.60;;;;;;5046152;28;20049;-67
2021/06/01 05:32:58;;;;;;;7.07;1.33;;;16.50;52.50;;;;;;5046643;28;19912;-66
2021/06/01 05:35:22;;;;;;;9.48;1.63;;;16.50;50.70;;;;;;5046198;28;20033;-66
2021/06/01 05:37:50;;;;;;;7.45;1.48;;;16.60;52.60;;;;;;5046341;28;20356;-68
2021/06/01 05:40:16;;;;;;;10.18;1.60;;;16.90;49.90;;;;;;5044312;28;20032;-66
2021/06/01 05:42:42;;;;;;;8.48;2.05;;;17.00;49.40;;;;;;5044556;28;20029;-66
2021/06/01 05:45:08;;;;;;;3.42;1.20;;;17.10;50.30;;;;;;5046347;28;20029;-67
2021/06/01 05:47:35;;;;;;;2.97;0.90;;;17.70;48.30;;;;;;5045862;28;20255;-67
2021/06/01 05:50:01;;;;;;;4.00;0.90;;;18.30;47.60;;;;;;5046300;28;20021;-66
2021/06/01 05:52:29;;;;;;;8.18;1.05;;;18.90;45.10;;;;;;5045438;28;20108;-66
2021/06/01 05:54:55;;;;;;;5.55;1.13;;;19.80;43.20;;;;;;5045959;28;20037;-67
2021/06/01 05:57:20;;;;;;;7.90;1.90;;;20.70;41.30;;;;;;5045602;28;20114;-66
2021/06/01 05:59:46;;;;;;;4.50;0.98;;;21.60;39.60;;;;;;5045122;28;20029;-67
2021/06/01 06:02:12;;;;;;;10.80;2.42;;;22.80;36.10;;;;;;5044934;28;20440;-66
2021/06/01 06:04:38;;;;;;;3.20;1.20;;;23.20;35.40;;;;;;5046229;28;20029;-66
2021/06/01 06:07:04;;;;;;;2.80;1.15;;;23.70;33.20;;;;;;5045461;28;20945;-67
2021/06/01 06:09:30;;;;;;;5.10;1.17;;;23.80;32.40;;;;;;5046015;28;20033;-67
2021/06/01 06:11:56;;;;;;;7.30;1.52;;;23.90;33.80;;;;;;5046032;28;20063;-67
2021/06/01 06:14:22;;;;;;;4.22;1.60;;;24.90;32.00;;;;;;5045792;28;20032;-67
2021/06/01 06:16:54;;;;;;;7.10;1.30;;;25.40;30.80;;;;;;5045983;28;20029;-66
2021/06/01 06:19:19;;;;;;;4.57;1.38;;;25.60;30.10;;;;;;5045726;28;20575;-67
2021/06/01 06:21:45;;;;;;;3.40;1.17;;;25.30;30.10;;;;;;5044578;28;20029;-67
2021/06/01 06:24:10;;;;;;;5.93;1.17;;;25.50;29.80;;;;;;5045473;28;20075;-67
2021/06/01 06:26:36;;;;;;;2.35;1.10;;;25.30;29.80;;;;;;5045518;28;20063;-68
2021/06/01 06:29:02;;;;;;;7.28;1.33;;;25.50;29.40;;;;;;5045812;28;20033;-67
2021/06/01 06:31:27;;;;;;;15.98;1.73;;;25.70;29.70;;;;;;5045592;28;20041;-67
2021/06/01 06:33:53;;;;;;;3.15;1.08;;;26.10;28.40;;;;;;5046077;28;20274;-67
2021/06/01 06:36:19;;;;;;;7.28;1.33;;;25.90;28.50;;;;;;5045179;28;20505;-68
2021/06/01 06:38:47;;;;;;;4.65;0.90;;;25.60;29.00;;;;;;5045584;28;20036;-65
2021/06/01 06:41:15;;;;;;;12.52;1.65;;;25.30;28.40;;;;;;5045261;28;20533;-67
2021/06/01 06:43:44;;;;;;;5.13;1.13;;;25.60;28.70;;;;;;5045468;28;20021;-67
2021/06/01 06:46:22;;;;;;;3.67;1.15;;;25.10;28.70;;;;;;5044475;28;20202;-67
2021/06/01 06:48:48;;;;;;;7.60;0.93;;;25.00;28.90;;;;;;5045425;28;20498;-67
2021/06/01 06:51:14;;;;;;;6.78;1.60;;;25.30;28.50;;;;;;5045685;28;20075;-66
2021/06/01 06:53:52;;;;;;;6.15;1.30;;;25.30;28.20;;;;;;5049307;28;20025;-67
2021/06/01 06:56:23;;;;;;;2.80;1.08;;;25.30;28.40;;;;;;5048963;28;20041;-67
2021/06/01 06:58:49;;;;;;;8.70;1.23;;;25.00;29.00;;;;;;5049250;28;20025;-67
2021/06/01 07:01:16;;;;;;;5.53;1.20;;;24.90;27.70;;;;;;5049030;28;20048;-67
2021/06/01 07:03:41;;;;;;;7.30;1.13;;;25.50;27.90;;;;;;5047983;28;20025;-67
2021/06/01 07:06:07;;;;;;;5.85;1.10;;;25.30;28.20;;;;;;5048342;28;20381;-66
2021/06/01 07:08:33;;;;;;;3.60;1.00;;;25.00;29.10;;;;;;5049224;28;20025;-67
2021/06/01 07:11:00;;;;;;;1.75;1.00;;;25.30;28.70;;;;;;5047733;28;20029;-67
2021/06/01 07:13:31;;;;;;;3.72;1.13;;;25.50;29.30;;;;;;5049119;28;20025;-67
2021/06/01 07:15:57;;;;;;;8.57;1.33;;;25.50;28.50;;;;;;5048576;28;20033;-67
2021/06/01 07:18:23;;;;;;;9.15;1.55;;;25.40;29.30;;;;;;5048924;28;20045;-67
2021/06/01 07:20:49;;;;;;;6.80;1.23;;;25.20;29.20;;;;;;5048081;28;20383;-65
2021/06/01 07:23:14;;;;;;;4.28;1.75;;;25.60;28.50;;;;;;5048869;28;20032;-67
2021/06/01 07:25:40;;;;;;;5.57;1.27;;;25.10;28.30;;;;;;5048667;28;20461;-67
2021/06/01 07:28:06;;;;;;;5.05;0.90;;;24.90;29.50;;;;;;5048711;28;20645;-67
2021/06/01 07:30:32;;;;;;;4.63;0.82;;;24.70;28.60;;;;;;5048607;28;20045;-68
2021/06/01 07:32:59;;;;;;;3.72;1.50;;;24.60;29.20;;;;;;5048518;28;20029;-67
2021/06/01 07:35:25;;;;;;;6.72;1.30;;;24.60;30.50;;;;;;5048530;28;20025;-65
2021/06/01 07:37:51;;;;;;;9.18;1.23;;;24.80;29.50;;;;;;5048698;28;20344;-64
2021/06/01 07:40:17;;;;;;;11.23;1.30;;;25.00;31.40;;;;;;5047290;28;20390;-64
2021/06/01 07:42:43;;;;;;;6.75;1.42;;;25.30;30.90;;;;;;5048427;28;20094;-66
2021/06/01 07:45:10;;;;;;;2.35;1.10;;;25.30;28.80;;;;;;5048035;28;20485;-64
2021/06/01 07:47:36;;;;;;;2.53;1.05;;;24.90;29.80;;;;;;5048383;28;20025;-66
2021/06/01 07:50:03;;;;;;;8.95;1.38;;;25.30;30.00;;;;;;5046877;28;20078;-65
2021/06/01 07:52:28;;;;;;;14.98;1.88;;;25.60;28.80;;;;;;5047735;28;20490;-65
2021/06/01 07:54:54;;;;;;;5.60;0.90;;;25.50;28.90;;;;;;5048194;28;20033;-65
2021/06/01 07:57:20;;;;;;;6.07;1.80;;;25.30;29.30;;;;;;5047933;28;20033;-67
2021/06/01 07:59:45;;;;;;;8.70;1.40;;;25.10;29.50;;;;;;5048184;28;20152;-67
2021/06/01 08:02:11;;;;;;;6.07;1.13;;;24.90;29.70;;;;;;5048088;28;20103;-67
2021/06/01 08:04:37;;;;;;;3.38;0.90;;;24.90;29.90;;;;;;5046993;28;20394;-67
2021/06/01 08:07:06;;;;;;;6.88;1.35;;;24.90;28.80;;;;;;5047492;28;20112;-67
2021/06/01 08:09:32;;;;;;;3.72;1.50;;;24.80;29.20;;;;;;5048182;28;20497;-67
2021/06/01 08:11:57;;;;;;;2.53;1.10;;;24.80;31.30;;;;;;5047592;28;20045;-66
2021/06/01 08:14:23;;;;;;;3.40;1.08;;;25.60;28.90;;;;;;5048058;28;20021;-67
2021/06/01 08:16:49;;;;;;;3.03;1.17;;;25.40;29.00;;;;;;5047758;28;20503;-67
2021/06/01 08:19:25;;;;;;;5.93;1.23;;;25.20;27.90;;;;;;5047808;28;20410;-67
2021/06/01 08:22:00;;;;;;;2.92;1.00;;;24.90;27.40;;;;;;5047352;28;20017;-66
2021/06/01 08:24:26;;;;;;;;;;;25.10;27.90;;;;;;5048416;28;20055;-67
2021/06/01 08:26:52;;;;;;;7.33;1.47;;;25.00;27.50;;;;;;5047737;28;20440;-67
2021/06/01 08:29:18;;;;;;;7.75;1.67;;;25.10;28.10;;;;;;5047202;28;20040;-67
2021/06/01 08:31:46;;;;;;;14.02;1.75;;;25.30;28.00;;;;;;5047768;28;20041;-66
2021/06/01 08:34:12;;;;;;;3.47;1.27;;;25.60;27.70;;;;;;5046183;28;20033;-67
2021/06/01 08:36:38;;;;;;;8.95;2.80;;;25.80;27.70;;;;;;5046729;28;20049;-65
2021/06/01 08:39:06;;;;;;;4.35;1.23;;;25.60;27.70;;;;;;5047109;28;20025;-67
2021/06/01 08:41:33;;;;;;;5.43;2.25;;;25.50;27.60;;;;;;5047118;28;20033;-68
2021/06/01 08:44:02;;;;;;;4.43;1.40;;;25.80;27.90;;;;;;5047355;28;20029;-67
2021/06/01 08:46:28;;;;;;;10.50;2.05;;;25.80;27.30;;;;;;5046323;28;20120;-68
2021/06/01 08:48:57;;;;;;;3.22;1.35;;;26.20;27.40;;;;;;5046854;28;20032;-67
2021/06/01 08:51:25;;;;;;;7.57;1.13;;;26.50;25.70;;;;;;5046881;28;20543;-68
2021/06/01 08:53:54;;;;;;;10.20;1.30;;;26.30;25.50;;;;;;5046935;28;20024;-66
2021/06/01 08:56:20;;;;;;;4.28;1.02;;;26.30;26.10;;;;;;5047016;28;20025;-67
2021/06/01 08:58:49;;;;;;;5.50;1.08;;;25.90;25.50;;;;;;5047154;28;20028;-66
2021/06/01 09:01:16;;;;;;;5.38;0.80;;;25.20;26.70;;;;;;5047207;28;20021;-67
2021/06/01 09:03:49;;;;;;;5.40;1.20;;;25.30;27.80;;;;;;5046685;28;20028;-67
2021/06/01 09:09:15;;;;;;;5.07;0.90;;;25.90;26.00;;;;;;5046307;28;20025;-66
2021/06/01 09:22:39;;;;;;;8.02;1.10;;;25.50;26.50;;;;;;5047112;28;20055;-67
2021/06/01 09:25:06;;;;;;;8.90;1.20;;;25.50;25.80;;;;;;5046242;28;20664;-66
2021/06/01 09:28:01;;;;;;;4.82;1.50;;;24.70;26.40;;;;;;5046587;28;20028;-66
2021/06/01 09:30:59;;;;;;;7.82;2.15;;;23.50;28.00;;;;;;5045913;28;20061;-66
2021/06/01 09:33:31;;;;;;;4.63;1.25;;;23.10;30.10;;;;;;5045877;28;20120;-66
2021/06/01 09:36:01;;;;;;;8.57;1.40;;;22.70;30.70;;;;;;5045728;28;20032;-67
2021/06/01 09:38:31;;;;;;;6.57;1.52;;;22.50;32.10;;;;;;5046075;28;20029;-67
2021/06/01 09:41:08;;;;;;;5.97;1.10;;;22.90;32.00;;;;;;5046290;28;20021;-67
2021/06/01 09:43:47;;;;;;;3.05;1.00;;;23.80;30.30;;;;;;5046472;28;20028;-66
2021/06/01 09:46:25;;;;;;;3.03;1.00;;;24.30;29.70;;;;;;5046696;28;20029;-67
2021/06/01 09:48:52;;;;;;;4.45;1.33;;;24.00;28.50;;;;;;5044536;28;20151;-66
2021/06/01 09:51:25;;;;;;;6.78;1.10;;;23.70;29.60;;;;;;5045793;28;20567;-67
2021/06/01 09:53:53;;;;;;;3.03;0.90;;;23.10;31.00;;;;;;5046410;28;20024;-66
2021/06/01 09:56:20;;;;;;;5.93;1.20;;;22.60;30.40;;;;;;5044432;28;20509;-67
2021/06/01 09:58:45;;;;;;;5.13;0.88;;;22.70;32.50;;;;;;5046109;28;20041;-66
2021/06/01 10:01:11;;;;;;;4.45;0.73;;;22.60;31.40;;;;;;5046179;28;20027;-65
2021/06/01 10:03:47;;;;;;;5.10;1.42;;;22.50;32.70;;;;;;5045526;28;20040;-66
2021/06/01 10:06:13;;;;;;;1.85;1.10;;;22.20;31.60;;;;;;5046047;28;20052;-66
2021/06/01 10:08:46;;;;;;;2.42;0.95;;;21.90;31.40;;;;;;5045959;28;20339;-66
2021/06/01 10:11:13;;;;;;;4.57;1.20;;;21.70;33.50;;;;;;5045932;28;20053;-67
2021/06/01 10:13:40;;;;;;;1.98;0.70;;;21.60;31.30;;;;;;5046002;28;20100;-66
2021/06/01 10:16:10;;;;;;;3.25;1.20;;;21.40;33.30;;;;;;5045943;28;20159;-66
2021/06/01 10:18:36;;;;;;;2.15;0.90;;;21.50;34.40;;;;;;5044568;28;20021;-67
2021/06/01 10:21:20;;;;;;;3.75;1.13;;;21.70;33.70;;;;;;5045470;28;20021;-67
2021/06/01 10:23:49;;;;;;;2.33;0.82;;;21.80;31.90;;;;;;5044433;28;20028;-67
2021/06/01 10:26:15;;;;;;;6.10;0.82;;;21.60;31.40;;;;;;5044687;28;20035;-67
2021/06/01 10:28:46;;;;;;;5.65;1.17;;;21.50;32.40;;;;;;5049940;28;20106;-67
2021/06/01 10:31:14;;;;;;;2.75;0.77;;;21.80;33.50;;;;;;5049742;28;20052;-66
2021/06/01 10:33:45;;;;;;;1.88;0.80;;;21.80;33.90;;;;;;5049459;28;20029;-67
2021/06/01 10:44:52;;;;;;;6.63;2.05;;;22.50;30.40;;;;;;5049752;28;20044;-67
2021/06/01 10:53:21;;;;;;;7.20;0.90;;;22.10;31.80;;;;;;5049327;28;20780;-66
2021/06/01 10:55:55;;;;;;;5.30;0.90;;;22.00;30.80;;;;;;5049125;28;20028;-66
2021/06/01 10:58:31;;;;;;;2.28;0.90;;;21.60;32.50;;;;;;5049676;28;20037;-66
2021/06/01 11:04:23;;;;;;;4.47;0.80;;;20.70;35.40;;;;;;5048548;28;20099;-66
2021/06/01 11:06:50;;;;;;;4.00;0.70;;;20.50;36.60;;;;;;5048950;28;20029;-67
2021/06/01 11:09:34;;;;;;;17.63;2.63;;;20.30;37.00;;;;;;5049222;28;20021;-66
2021/06/01 11:12:12;;;;;;;13.55;1.80;;;20.20;37.60;;;;;;5049327;28;20090;-66
2021/06/01 11:14:38;;;;;;;11.27;1.17;;;20.20;35.40;;;;;;5049286;28;20049;-66
2021/06/01 11:17:03;;;;;;;6.68;1.20;;;20.00;35.50;;;;;;5047188;28;20037;-67
2021/06/01 11:19:57;;;;;;;4.88;1.42;;;20.00;36.30;;;;;;5048593;28;20100;-66
2021/06/01 11:22:38;;;;;;;3.03;0.85;;;19.90;37.30;;;;;;5048774;28;20029;-67
2021/06/01 11:33:39;;;;;;;8.88;1.38;;;20.60;34.00;;;;;;5048031;28;20028;-67
2021/06/01 11:36:15;;;;;;;6.10;1.27;;;20.80;34.30;;;;;;5048592;28;20041;-67
2021/06/01 11:38:54;;;;;;;4.20;0.80;;;21.00;32.60;;;;;;5047033;28;20585;-64
2021/06/01 11:43:51;;;;;;;5.78;0.95;;;21.10;33.30;;;;;;5048471;28;20036;-67
2021/06/01 11:51:21;;;;;;;4.38;0.65;;;20.90;34.00;;;;;;5048453;28;20047;-66
2021/06/01 11:54:12;;;;;;;14.82;0.80;;;20.80;33.20;;;;;;5048486;28;20032;-67
2021/06/01 12:02:27;;;;;;;2.08;0.70;;;21.10;32.90;;;;;;5047949;28;20035;-67
2021/06/01 12:13:17;;;;;;;5.55;0.90;;;20.90;34.10;;;;;;5047096;28;20028;-67
2021/06/01 12:18:38;;;;;;;3.05;0.60;;;21.00;34.40;;;;;;5047231;28;20178;-65
2021/06/01 12:21:05;;;;;;;3.60;0.90;;;21.10;33.10;;;;;;5047713;28;20072;-66
2021/06/01 12:23:34;;;;;;;3.10;0.77;;;21.50;34.00;;;;;;5047936;28;20537;-69
2021/06/01 12:32:06;;;;;;;3.05;0.57;;;21.80;33.30;;;;;;5048276;28;20120;-67
2021/06/01 13:21:50;;;;;;;2.30;0.90;;;22.10;31.40;;;;;;5046999;28;20029;-66
2021/06/01 13:30:21;;;;;;;5.00;0.60;;;21.50;29.60;;;;;;5046180;28;20492;-67
2021/06/01 13:36:28;;;;;;;4.05;0.90;;;21.40;30.10;;;;;;5045924;28;20049;-67
2021/06/01 13:38:58;;;;;;;1.88;0.60;;;21.30;30.30;;;;;;5045444;28;20118;-67
2021/06/01 13:46:49;;;;;;;6.18;0.73;;;21.50;30.00;;;;;;5045675;28;20627;-67
2021/06/01 13:49:23;;;;;;;2.30;1.10;;;21.50;30.30;;;;;;5045622;28;20053;-68
2021/06/01 14:21:55;;;;;;;6.03;0.77;;;21.10;30.70;;;;;;5046491;28;20095;-67
2021/06/01 14:29:58;;;;;;;4.70;1.10;;;20.90;32.10;;;;;;5046118;28;20044;-67
2021/06/01 16:21:27;;;;;;;4.75;0.60;;;19.80;32.30;;;;;;5047727;28;20941;-69
2021/06/01 17:04:55;;;;;;;3.28;1.13;;;19.20;33.80;;;;;;5061795;28;20037;-68
2021/06/01 17:13:13;;;;;;;8.43;0.60;;;19.10;36.20;;;;;;5046863;28;20439;-67
2021/06/01 17:15:40;;;;;;;3.35;0.70;;;19.10;36.20;;;;;;5045753;28;20289;-68
2021/06/01 17:36:44;;;;;;;4.18;0.80;;;18.60;39.00;;;;;;5044984;28;20078;-69
2021/06/01 17:39:10;;;;;;;1.90;0.70;;;18.50;39.40;;;;;;5046477;28;20051;-69
2021/06/01 17:41:37;;;;;;;2.55;0.88;;;18.40;39.70;;;;;;5045952;28;20029;-69
2021/06/01 17:44:05;;;;;;;5.65;0.98;;;18.40;40.40;;;;;;5045589;28;20336;-68
2021/06/01 17:46:35;;;;;;;2.47;0.93;;;18.30;40.20;;;;;;5045379;28;20139;-68
2021/06/01 17:49:04;;;;;;;4.30;0.93;;;18.20;40.40;;;;;;5045238;28;20052;-67
2021/06/01 17:51:30;;;;;;;5.35;0.68;;;18.00;41.10;;;;;;5045999;28;20029;-69
2021/06/01 17:53:59;;;;;;;6.63;0.80;;;17.90;41.80;;;;;;5046133;28;20036;-68
2021/06/01 17:56:28;;;;;;;1.20;0.60;;;17.80;42.10;;;;;;5045701;28;20033;-69
2021/06/01 17:58:56;;;;;;;1.88;0.68;;;17.60;42.60;;;;;;5045899;28;20083;-68
2021/06/01 18:01:24;;;;;;;1.85;0.85;;;17.40;43.70;;;;;;5043164;28;20029;-68
2021/06/01 18:03:56;;;;;;;1.63;0.75;;;17.30;44.90;;;;;;5046301;28;20354;-69
2021/06/01 18:06:32;;;;;;;4.03;1.05;;;17.10;46.00;;;;;;5045859;28;20033;-68
2021/06/01 18:12:31;;;;;;;2.28;0.90;;;16.70;48.30;;;;;;5046127;28;20036;-69
2021/06/01 19:21:23;;;;;;;7.63;2.30;;;13.80;57.30;;;;;;5048956;28;20070;-71
2021/06/01 19:50:29;;;;;;;7.23;2.97;;;13.20;60.50;;;;;;5048510;28;20031;-70
2021/06/01 19:52:56;;;;;;;7.07;3.20;;;13.20;63.10;;;;;;5048308;28;20256;-70
2021/06/01 19:55:26;;;;;;;10.95;2.60;;;13.10;63.90;;;;;;5047576;28;20533;-70
2021/06/01 19:57:53;;;;;;;8.60;2.03;;;13.00;64.60;;;;;;5046063;28;20033;-70
2021/06/01 20:00:21;;;;;;;5.57;2.33;;;13.00;64.00;;;;;;5047366;28;20032;-69
2021/06/01 20:02:47;;;;;;;2.85;1.58;;;13.00;64.50;;;;;;5046896;28;20056;-69
2021/06/01 20:05:15;;;;;;;4.32;1.25;;;13.00;62.70;;;;;;5048274;28;20033;-70
2021/06/01 20:07:42;;;;;;;6.55;1.10;;;13.00;62.00;;;;;;5047813;28;20028;-70
2021/06/01 20:10:14;;;;;;;5.05;1.13;;;13.00;61.90;;;;;;5048142;28;20032;-70
2021/06/01 20:12:40;;;;;;;3.03;1.20;;;12.90;61.80;;;;;;5047727;28;20029;-70
2021/06/01 20:15:08;;;;;;;5.97;1.83;;;13.00;62.80;;;;;;5046077;28;20025;-69
2021/06/01 20:17:33;;;;;;;6.70;1.95;;;12.90;64.30;;;;;;5047197;28;20058;-70
2021/06/01 20:20:01;;;;;;;;;;;12.90;65.20;;;;;;5048534;28;20497;-67
2021/06/01 20:22:29;;;;;;;7.85;2.28;;;12.90;66.50;;;;;;5047855;28;19974;-66
2021/06/01 20:24:59;;;;;;;3.63;1.73;;;12.80;66.80;;;;;;5047625;28;20066;-67